Time;durP1;ratioP1;P1;durP2;ratioP2;P2;SDS_P1;SDS_P2;PMS_P1;PMS_P2;Temp;Humidity;BMP_temperature;BMP_pressure;BME280_temperature;BME280_humidity;BME280_pressure;Samples;Min_cycle;Max_cycle;Signal;HPM_P1;HPM_P2
2022/12/19 00:01:48;;;;;;;29.80;18.52;;;;;;;-0.68;100.00;101914.03;4970602;28;20518;-75
2022/12/19 00:04:18;;;;;;;29.35;18.63;;;;;;;-0.66;100.00;101911.50;4957090;28;20515;-75
2022/12/19 00:06:46;;;;;;;27.52;16.95;;;;;;;-0.66;100.00;101919.28;4968223;28;20055;-75
2022/12/19 00:09:13;;;;;;;31.88;18.23;;;;;;;-0.64;100.00;101897.00;4983171;28;20421;-75
2022/12/19 00:11:41;;;;;;;32.17;18.73;;;;;;;-0.64;100.00;101897.00;4984202;28;20050;-75
2022/12/19 00:14:10;;;;;;;28.25;18.08;;;;;;;-0.63;100.00;101885.84;4948405;28;20046;-75
2022/12/19 00:16:38;;;;;;;30.47;18.73;;;;;;;-0.62;100.00;101877.28;4972189;28;20081;-75
2022/12/19 00:19:06;;;;;;;32.33;19.42;;;;;;;-0.62;100.00;101867.81;4970640;28;20051;-75
2022/12/19 00:21:34;;;;;;;32.45;19.45;;;;;;;-0.62;100.00;101870.41;4972556;28;20495;-75
2022/12/19 00:24:07;;;;;;;31.65;18.80;;;;;;;-0.62;100.00;101867.81;4983467;28;20030;-75
2022/12/19 00:26:46;;;;;;;33.92;20.08;;;;;;;-0.61;100.00;101874.75;4987473;28;20872;-75
2022/12/19 00:29:13;;;;;;;36.33;20.15;;;;;;;-0.61;100.00;101856.66;4941090;28;20055;-76
2022/12/19 00:31:44;;;;;;;29.75;18.92;;;;;;;-0.60;100.00;101855.88;4990540;28;20046;-74
2022/12/19 00:34:14;;;;;;;36.08;20.35;;;;;;;-0.60;100.00;101848.09;4970562;28;20431;-75
2022/12/19 00:36:41;;;;;;;29.60;19.33;;;;;;;-0.59;100.00;101830.84;4954233;28;20061;-74
2022/12/19 00:39:10;;;;;;;31.73;19.42;;;;;;;-0.58;100.00;101827.50;4991849;28;20049;-75
2022/12/19 00:41:39;;;;;;;34.90;20.42;;;;;;;-0.57;100.00;101834.44;4988951;28;20047;-77
2022/12/19 00:44:10;;;;;;;;;;;;;;;-0.57;100.00;101813.72;4941405;28;20077;-75
2022/12/19 00:46:37;;;;;;;32.65;19.33;;;;;;;-0.55;100.00;101825.06;4989045;28;19925;-75
2022/12/19 00:49:05;;;;;;;35.47;20.67;;;;;;;-0.54;100.00;101826.00;4985303;28;20065;-75
2022/12/19 00:51:35;;;;;;;34.22;20.73;;;;;;;-0.53;100.00;101814.81;4976908;28;20528;-76
2022/12/19 00:54:03;;;;;;;36.05;19.95;;;;;;;-0.52;100.00;101809.75;4970605;28;20050;-77
2022/12/19 00:56:34;;;;;;;33.53;20.05;;;;;;;-0.51;100.00;101802.88;4989024;28;20057;-77
2022/12/19 00:59:06;;;;;;;34.97;21.00;;;;;;;-0.50;100.00;101799.50;4954550;28;20061;-75
2022/12/19 01:01:36;;;;;;;33.80;20.00;;;;;;;-0.49;100.00;101796.09;4954789;28;20065;-77
2022/12/19 01:04:06;;;;;;;37.72;20.90;;;;;;;-0.45;100.00;101787.75;4984198;28;20050;-77
2022/12/19 01:06:54;;;;;;;36.05;21.10;;;;;;;-0.44;100.00;101774.84;4963351;28;20552;-76
2022/12/19 01:09:32;;;;;;;37.58;21.67;;;;;;;-0.43;100.00;101776.66;4973688;28;20046;-77
2022/12/19 01:14:47;;;;;;;38.35;22.02;;;;;;;-0.40;100.00;101763.00;4987244;28;20368;-76
2022/12/19 01:17:17;;;;;;;35.63;20.30;;;;;;;-0.38;100.00;101758.81;4941940;28;20114;-76
2022/12/19 01:19:44;;;;;;;36.17;21.33;;;;;;;-0.36;100.00;101745.97;4956278;28;20522;-76
2022/12/19 01:22:12;;;;;;;35.22;20.92;;;;;;;-0.35;100.00;101737.41;4971131;28;20051;-76
2022/12/19 01:24:40;;;;;;;33.58;21.55;;;;;;;-0.34;100.00;101753.03;5000116;28;20046;-76
2022/12/19 01:27:08;;;;;;;36.50;20.98;;;;;;;-0.32;100.00;101753.13;4960103;28;20054;-76
2022/12/19 01:29:35;;;;;;;34.03;20.23;;;;;;;-0.30;100.00;101746.31;4988068;28;20396;-76
2022/12/19 01:32:20;;;;;;;33.33;19.92;;;;;;;-0.29;100.00;101761.97;4935163;28;20038;-76
2022/12/19 01:34:48;;;;;;;33.42;20.00;;;;;;;-0.26;100.00;101779.41;4966979;28;20435;-76
2022/12/19 01:37:15;;;;;;;38.72;21.27;;;;;;;-0.24;100.00;101762.28;4960214;28;20038;-76
2022/12/19 01:39:43;;;;;;;34.33;21.00;;;;;;;-0.24;100.00;101759.69;4981915;28;20511;-76
2022/12/19 01:42:21;;;;;;;36.10;21.00;;;;;;;-0.23;100.00;101759.78;4974260;28;20058;-76
2022/12/19 01:45:08;;;;;;;33.03;20.90;;;;;;;-0.22;100.00;101751.19;4961851;28;20047;-77
2022/12/19 01:48:01;;;;;;;31.83;20.33;;;;;;;-0.20;100.00;101751.28;4924197;28;20057;-76
2022/12/19 01:50:31;;;;;;;33.88;19.45;;;;;;;-0.17;100.00;101735.03;4988491;28;20050;-75
2022/12/19 01:53:00;;;;;;;37.55;20.60;;;;;;;-0.17;100.00;101735.94;4972899;28;20069;-76
2022/12/19 01:55:29;;;;;;;43.63;20.05;;;;;;;-0.16;100.00;101719.59;4958461;28;20811;-76
2022/12/19 01:58:00;;;;;;;36.42;20.48;;;;;;;-0.13;100.00;101716.28;4979801;28;20047;-77
2022/12/19 02:00:27;;;;;;;34.28;21.10;;;;;;;-0.12;100.00;101721.56;4981375;28;20042;-77
2022/12/19 02:03:04;;;;;;;39.50;21.30;;;;;;;-0.12;100.00;101708.59;4918525;28;20508;-77
2022/12/19 02:05:34;;;;;;;34.75;19.60;;;;;;;-0.09;100.00;101710.50;4988280;28;20050;-76
2022/12/19 02:08:02;;;;;;;35.88;20.67;;;;;;;-0.09;100.00;101706.22;4998766;28;20049;-76
2022/12/19 02:10:31;;;;;;;34.92;21.17;;;;;;;-0.06;100.00;101708.06;4977551;28;20062;-77
2022/12/19 02:12:59;;;;;;;37.72;20.52;;;;;;;-0.06;100.00;101697.72;4936153;28;20046;-76
2022/12/19 02:15:32;;;;;;;41.58;22.27;;;;;;;-0.03;100.00;101691.00;4970932;28;20046;-77
2022/12/19 02:18:20;;;;;;;34.88;20.73;;;;;;;-0.02;100.00;101686.72;4924831;28;20046;-76
2022/12/19 02:21:26;;;;;;;37.40;21.58;;;;;;;0.00;100.00;101687.72;4984558;28;20050;-76
2022/12/19 02:24:03;;;;;;;35.00;20.58;;;;;;;0.02;100.00;101667.06;4966185;28;20039;-76
2022/12/19 02:27:10;;;;;;;36.58;21.10;;;;;;;0.03;100.00;101672.34;4970576;28;20054;-76
2022/12/19 02:30:03;;;;;;;41.05;24.20;;;;;;;0.06;100.00;101679.41;4988490;28;20042;-75
2022/12/19 02:32:51;;;;;;;33.25;20.27;;;;;;;0.08;100.00;101675.22;4954385;28;20051;-76
2022/12/19 02:35:51;;;;;;;38.47;21.75;;;;;;;0.10;100.00;101671.91;4938097;28;20504;-75
2022/12/19 02:38:32;;;;;;;37.55;21.20;;;;;;;0.13;100.00;101671.19;4970460;28;20054;-76
2022/12/19 02:41:59;;;;;;;33.55;20.17;;;;;;;0.14;100.00;101681.66;4980405;28;20635;-76
2022/12/19 02:44:41;;;;;;;35.45;19.65;;;;;;;0.16;100.00;101677.44;4973170;28;20057;-76
2022/12/19 02:47:10;;;;;;;34.78;21.23;;;;;;;0.18;100.00;101690.50;4980133;28;20425;-76
2022/12/19 02:49:38;;;;;;;37.65;21.65;;;;;;;0.20;100.00;101683.72;4926148;28;20062;-76
2022/12/19 02:52:19;;;;;;;37.10;21.55;;;;;;;0.20;100.00;101668.16;4894696;28;20077;-76
2022/12/19 02:54:52;;;;;;;42.25;23.27;;;;;;;0.20;100.00;101660.38;4980875;28;20053;-76
2022/12/19 02:57:34;;;;;;;38.80;22.67;;;;;;;0.21;100.00;101661.25;4965505;28;20050;-76
2022/12/19 03:00:16;;;;;;;42.70;22.67;;;;;;;0.21;100.00;101656.06;4976753;28;20162;-76
2022/12/19 03:03:00;;;;;;;46.75;24.40;;;;;;;0.21;100.00;101657.00;4961478;28;20050;-76
2022/12/19 03:06:03;;;;;;;48.25;24.27;;;;;;;0.20;100.00;101650.00;4945189;28;20047;-76
2022/12/19 03:08:42;;;;;;;43.28;23.77;;;;;;;0.21;100.00;101637.94;4966684;28;20050;-76
2022/12/19 03:11:13;;;;;;;47.08;23.80;;;;;;;0.18;100.00;101634.34;4964613;28;20047;-76
2022/12/19 03:14:21;;;;;;;50.90;26.00;;;;;;;0.17;100.00;101636.84;4965042;28;20051;-76
2022/12/19 03:16:54;;;;;;;48.22;24.52;;;;;;;0.16;100.00;101629.91;4985674;28;20041;-76
2022/12/19 03:19:22;;;;;;;49.53;24.77;;;;;;;0.15;100.00;101626.44;4927709;28;20043;-76
2022/12/19 03:21:49;;;;;;;54.00;25.60;;;;;;;0.15;100.00;101617.72;4949885;28;20050;-75
2022/12/19 03:24:18;;;;;;;50.97;26.13;;;;;;;0.16;100.00;101615.22;4951203;28;20057;-76
2022/12/19 03:26:56;;;;;;;55.80;26.80;;;;;;;0.15;100.00;101615.13;4950022;28;20491;-76
2022/12/19 03:29:27;;;;;;;52.22;26.42;;;;;;;0.16;100.00;101603.97;4967255;28;20042;-76
2022/12/19 03:31:58;;;;;;;50.33;25.05;;;;;;;0.17;100.00;101610.94;4965058;28;20039;-76
2022/12/19 03:34:35;;;;;;;54.55;26.77;;;;;;;0.16;100.00;101596.22;4958852;28;20055;-76
2022/12/19 03:37:06;;;;;;;52.80;26.27;;;;;;;0.16;100.00;101589.31;4935408;28;20070;-75
2022/12/19 03:39:34;;;;;;;;;;;;;;;0.18;100.00;101598.06;4982928;28;20054;-76
2022/12/19 03:44:50;;;;;;;53.80;27.67;;;;;;;0.17;100.00;101603.16;4984676;28;20042;-76
2022/12/19 03:47:26;;;;;;;54.22;26.95;;;;;;;0.19;100.00;101599.00;4951670;28;20054;-76
2022/12/19 03:49:53;;;;;;;62.28;28.33;;;;;;;0.19;100.00;101586.91;4976985;28;20069;-75
2022/12/19 03:52:27;;;;;;;60.72;29.67;;;;;;;0.21;100.00;101597.38;4980899;28;20388;-76
2022/12/19 03:55:21;;;;;;;61.55;29.27;;;;;;;0.22;100.00;101577.53;4936093;28;20130;-76
2022/12/19 03:57:55;;;;;;;70.35;30.02;;;;;;;0.22;100.00;101591.38;4984066;28;20056;-76
2022/12/19 04:00:24;;;;;;;59.45;29.27;;;;;;;0.24;100.00;101587.16;4969216;28;20046;-76
2022/12/19 04:02:56;;;;;;;67.28;31.00;;;;;;;0.26;100.00;101575.19;4967303;28;20081;-76
2022/12/19 04:05:25;;;;;;;66.18;30.63;;;;;;;0.28;100.00;101575.25;4989647;28;20042;-76
2022/12/19 04:07:57;;;;;;;59.60;29.52;;;;;;;0.29;100.00;101558.91;4924809;28;20055;-76
2022/12/19 04:10:26;;;;;;;56.00;28.40;;;;;;;0.31;100.00;101565.06;4995456;28;20038;-76
2022/12/19 04:13:01;;;;;;;65.78;30.75;;;;;;;0.31;100.00;101531.38;4986358;28;20054;-76
2022/12/19 04:15:50;;;;;;;67.68;30.02;;;;;;;0.31;100.00;101532.25;4987776;28;20069;-76
2022/12/19 04:18:19;;;;;;;67.97;31.45;;;;;;;0.33;100.00;101538.41;4988051;28;20534;-76
2022/12/19 04:21:16;;;;;;;66.82;30.23;;;;;;;0.34;100.00;101527.25;4984810;28;20058;-76
2022/12/19 04:23:49;;;;;;;69.72;31.55;;;;;;;0.35;100.00;101529.03;4962422;28;20067;-76
2022/12/19 04:26:20;;;;;;;67.43;31.20;;;;;;;0.37;100.00;101519.63;4983102;28;20480;-76
2022/12/19 04:28:51;;;;;;;65.05;30.20;;;;;;;0.38;100.00;101518.84;4981993;28;20050;-76
2022/12/19 04:31:20;;;;;;;75.00;33.15;;;;;;;0.41;100.00;101512.91;4988426;28;20054;-76
2022/12/19 04:33:47;;;;;;;68.65;30.98;;;;;;;0.42;100.00;101513.78;4987971;28;20057;-76
2022/12/19 04:36:14;;;;;;;70.95;32.78;;;;;;;0.45;100.00;101516.56;4973651;28;20062;-76
2022/12/19 04:38:42;;;;;;;71.28;32.63;;;;;;;0.46;100.00;101515.78;4939380;28;20070;-75
2022/12/19 04:41:09;;;;;;;76.38;33.00;;;;;;;0.47;100.00;101514.94;4950838;28;20057;-74
2022/12/19 04:43:36;;;;;;;69.75;32.78;;;;;;;0.48;100.00;101509.84;4972300;28;20061;-76
2022/12/19 04:46:05;;;;;;;72.55;33.45;;;;;;;0.50;100.00;101507.34;4985190;28;20038;-75
2022/12/19 04:48:35;;;;;;;71.63;32.72;;;;;;;0.51;100.00;101509.13;4987451;28;20419;-75
2022/12/19 04:51:02;;;;;;;87.32;35.03;;;;;;;0.53;100.00;101499.72;4956268;28;23831;-75
2022/12/19 04:53:31;;;;;;;81.70;34.63;;;;;;;0.54;100.00;101505.00;4964708;28;20534;-76
2022/12/19 04:56:00;;;;;;;76.70;36.05;;;;;;;0.57;100.00;101504.28;4922424;28;20061;-75
2022/12/19 04:58:28;;;;;;;78.72;34.42;;;;;;;0.58;100.00;101495.69;4987655;28;20057;-75
2022/12/19 05:01:06;;;;;;;79.85;35.05;;;;;;;0.60;100.00;101493.19;4982706;28;20409;-75
2022/12/19 05:03:35;;;;;;;81.00;33.03;;;;;;;0.61;100.00;101494.97;4965816;28;20061;-76
2022/12/19 05:06:08;;;;;;;85.97;36.38;;;;;;;0.63;100.00;101482.97;4968774;28;20480;-75
2022/12/19 05:08:38;;;;;;;83.50;35.33;;;;;;;0.64;100.00;101479.56;4962800;28;20519;-76
2022/12/19 05:11:07;;;;;;;85.03;36.95;;;;;;;0.66;100.00;101478.84;4939098;28;20058;-76
2022/12/19 05:13:35;;;;;;;84.20;34.65;;;;;;;0.67;100.00;101475.44;4954814;28;20125;-75
2022/12/19 05:16:06;;;;;;;90.82;37.08;;;;;;;0.71;100.00;101468.69;4977774;28;20039;-76
2022/12/19 05:18:35;;;;;;;82.50;35.17;;;;;;;0.72;100.00;101468.78;4988651;28;20502;-76
2022/12/19 05:21:04;;;;;;;88.80;38.17;;;;;;;0.75;100.00;101462.84;4968173;28;20073;-76
2022/12/19 05:23:32;;;;;;;93.32;37.95;;;;;;;0.75;100.00;101442.97;4960968;28;20054;-76
2022/12/19 05:26:01;;;;;;;95.78;37.58;;;;;;;0.77;100.00;101451.75;4935135;28;20042;-76
2022/12/19 05:28:29;;;;;;;97.05;38.80;;;;;;;0.77;100.00;101443.97;4971140;28;20135;-76
2022/12/19 05:31:06;;;;;;;95.70;39.15;;;;;;;0.80;100.00;101439.78;4951026;28;20524;-76
2022/12/19 05:33:34;;;;;;;96.68;36.65;;;;;;;0.82;100.00;101431.25;4982964;28;20074;-76
2022/12/19 05:36:01;;;;;;;89.18;37.88;;;;;;;0.83;100.00;101426.94;4988609;28;20050;-76
2022/12/19 05:38:31;;;;;;;83.80;36.40;;;;;;;0.86;100.00;101427.09;4955850;28;20397;-76
2022/12/19 05:40:59;;;;;;;94.43;38.17;;;;;;;0.87;100.00;101422.00;4924180;28;20054;-76
2022/12/19 05:43:26;;;;;;;86.78;36.80;;;;;;;0.88;100.00;101433.25;4966827;28;20423;-75
2022/12/19 05:45:54;;;;;;;85.40;35.67;;;;;;;0.89;100.00;101435.94;4985717;28;20780;-76
2022/12/19 05:48:21;;;;;;;86.63;37.72;;;;;;;0.93;100.00;101434.41;4986680;28;20053;-76
2022/12/19 05:50:49;;;;;;;94.88;38.58;;;;;;;0.94;100.00;101434.44;4986572;28;20527;-75
2022/12/19 05:53:17;;;;;;;85.78;35.80;;;;;;;0.96;100.00;101437.13;4966820;28;20511;-76
2022/12/19 05:55:52;;;;;;;86.72;37.20;;;;;;;0.97;100.00;101434.63;4936097;28;20050;-76
2022/12/19 05:58:20;;;;;;;96.05;38.28;;;;;;;1.01;100.00;101442.56;4972837;28;20057;-76
2022/12/19 06:00:47;;;;;;;99.30;39.03;;;;;;;1.02;100.00;101441.75;4983436;28;20057;-76
2022/12/19 06:03:14;;;;;;;92.53;38.22;;;;;;;1.03;100.00;101436.66;4948539;28;20057;-76
2022/12/19 06:05:42;;;;;;;99.30;37.85;;;;;;;1.05;100.00;101436.72;4967740;28;20053;-76
2022/12/19 06:08:10;;;;;;;99.53;36.88;;;;;;;1.05;100.00;101442.81;4951709;28;20051;-76
2022/12/19 06:10:37;;;;;;;100.78;39.35;;;;;;;1.07;100.00;101440.28;4949799;28;20392;-75
2022/12/19 06:13:05;;;;;;;109.88;38.38;;;;;;;1.07;100.00;101438.56;4902272;28;20046;-75
2022/12/19 06:15:32;;;;;;;109.97;39.95;;;;;;;1.09;100.00;101441.25;4954917;28;20058;-76
2022/12/19 06:17:59;;;;;;;104.45;39.50;;;;;;;1.10;100.00;101428.38;4972162;28;20049;-78
2022/12/19 06:20:27;;;;;;;119.43;41.50;;;;;;;1.11;100.00;101424.94;4982562;28;20056;-75
2022/12/19 06:22:54;;;;;;;103.88;38.78;;;;;;;1.12;100.00;101424.13;4984077;28;20049;-75
2022/12/19 06:25:21;;;;;;;105.43;40.65;;;;;;;1.14;100.00;101416.44;4954867;28;20400;-75
2022/12/19 06:27:49;;;;;;;104.22;39.45;;;;;;;1.16;100.00;101420.88;4941744;28;20535;-75
2022/12/19 06:30:16;;;;;;;84.35;35.60;;;;;;;1.19;100.00;101419.25;4982067;28;20062;-75
2022/12/19 06:32:43;;;;;;;96.25;37.72;;;;;;;1.22;100.00;101419.41;4963914;28;20069;-75
2022/12/19 06:35:11;;;;;;;87.82;37.92;;;;;;;1.24;100.00;101416.06;4985981;28;20423;-75
2022/12/19 06:37:38;;;;;;;90.32;37.50;;;;;;;1.29;100.00;101416.31;4983801;28;20046;-75
2022/12/19 06:40:06;;;;;;;87.07;37.92;;;;;;;1.31;100.00;101414.69;4973357;28;20041;-75
2022/12/19 06:42:33;;;;;;;82.50;37.28;;;;;;;1.33;100.00;101407.84;4936210;28;20042;-75
2022/12/19 06:45:00;;;;;;;93.07;38.35;;;;;;;1.34;100.00;101410.53;4967559;28;20403;-75
2022/12/19 06:47:28;;;;;;;93.78;36.90;;;;;;;1.37;100.00;101417.56;4973080;28;20046;-75
2022/12/19 06:49:55;;;;;;;101.72;39.33;;;;;;;1.38;100.00;101415.84;4978885;28;20042;-75
2022/12/19 06:52:22;;;;;;;91.60;35.67;;;;;;;1.40;100.00;101407.34;4989279;28;20050;-75
2022/12/19 06:54:50;;;;;;;94.45;38.15;;;;;;;1.42;100.00;101399.59;4972444;28;20046;-75
2022/12/19 06:57:17;;;;;;;93.75;36.83;;;;;;;1.44;100.00;101396.28;4984034;28;20042;-75
2022/12/19 06:59:44;;;;;;;81.80;34.92;;;;;;;1.44;100.00;101393.69;4947773;28;20056;-75
2022/12/19 07:02:26;;;;;;;84.18;35.10;;;;;;;1.47;100.00;101386.03;4952847;28;20053;-75
2022/12/19 07:04:59;;;;;;;80.05;33.75;;;;;;;1.50;100.00;101387.91;4968573;28;20042;-75
2022/12/19 07:07:28;;;;;;;89.53;35.70;;;;;;;1.54;100.00;101382.03;4987865;28;20407;-75
2022/12/19 07:09:55;;;;;;;76.32;34.72;;;;;;;1.58;100.00;101377.88;4985381;28;20054;-75
2022/12/19 07:12:23;;;;;;;74.30;33.60;;;;;;;1.61;100.00;101376.31;4971214;28;20057;-75
2022/12/19 07:14:50;;;;;;;80.65;35.38;;;;;;;1.65;100.00;101382.56;4929016;28;20822;-74
2022/12/19 07:17:21;;;;;;;71.25;32.08;;;;;;;1.69;100.00;101376.69;4975713;28;20049;-74
2022/12/19 07:19:49;;;;;;;76.93;33.72;;;;;;;1.72;100.00;101384.63;4955629;28;20050;-74
2022/12/19 07:22:16;;;;;;;78.68;32.90;;;;;;;1.77;100.00;101379.66;4971860;28;20046;-74
2022/12/19 07:24:44;;;;;;;68.30;32.58;;;;;;;1.80;100.00;101375.50;4958315;28;20048;-75
2022/12/19 07:27:11;;;;;;;76.28;31.40;;;;;;;1.85;100.00;101379.22;4952125;28;20043;-74
2022/12/19 07:29:40;;;;;;;68.82;30.52;;;;;;;1.90;100.00;101388.09;4950315;28;20053;-74
2022/12/19 07:32:07;;;;;;;83.53;31.52;;;;;;;1.92;100.00;101380.38;4968493;28;20073;-74
2022/12/19 07:34:34;;;;;;;61.65;28.75;;;;;;;1.94;100.00;101384.81;4957791;28;20057;-75
2022/12/19 07:37:01;;;;;;;66.97;30.48;;;;;;;1.98;100.00;101385.84;4981537;28;20043;-74
2022/12/19 07:39:29;;;;;;;62.85;28.35;;;;;;;2.02;100.00;101373.88;4974467;28;20042;-74
2022/12/19 07:41:56;;;;;;;73.57;30.63;;;;;;;2.05;100.00;101376.63;4939629;28;20508;-74
2022/12/19 07:44:34;;;;;;;66.72;29.90;;;;;;;2.09;100.00;101368.16;4982140;28;20038;-74
2022/12/19 07:47:02;;;;;;;60.17;28.00;;;;;;;2.11;100.00;101371.72;4922978;28;20054;-74
2022/12/19 07:49:31;;;;;;;62.35;28.73;;;;;;;2.14;100.00;101362.34;4967337;28;20558;-74
2022/12/19 07:51:58;;;;;;;54.05;26.20;;;;;;;2.19;100.00;101380.75;4970793;28;20049;-74
2022/12/19 07:54:26;;;;;;;56.17;27.80;;;;;;;2.22;100.00;101372.22;4983487;28;20496;-74
2022/12/19 07:56:53;;;;;;;53.63;26.17;;;;;;;2.25;100.00;101381.03;4961666;28;20042;-74
2022/12/19 07:59:21;;;;;;;61.95;25.52;;;;;;;2.27;100.00;101371.59;4961006;28;20507;-74
2022/12/19 08:01:56;;;;;;;53.15;25.05;;;;;;;2.31;100.00;101367.44;4944746;28;20042;-74
2022/12/19 08:04:25;;;;;;;50.58;25.92;;;;;;;2.34;100.00;101368.47;4970949;28;20060;-74
2022/12/19 08:06:52;;;;;;;51.63;25.13;;;;;;;2.39;100.00;101366.03;4956575;28;20042;-74
2022/12/19 08:09:20;;;;;;;59.03;25.58;;;;;;;2.46;100.00;101362.03;4993251;28;20068;-74
2022/12/19 08:11:47;;;;;;;49.10;22.65;;;;;;;2.51;100.00;101371.81;4976455;28;20081;-74
2022/12/19 08:14:14;;;;;;;50.38;22.90;;;;;;;2.56;100.00;101366.78;4942312;28;20051;-74
2022/12/19 08:16:42;;;;;;;55.75;24.67;;;;;;;2.58;100.00;101362.53;4931620;28;20732;-75
2022/12/19 08:19:30;;;;;;;46.80;23.73;;;;;;;2.61;100.00;101359.19;4973043;28;20062;-74
2022/12/19 08:21:57;;;;;;;57.65;24.92;;;;;;;2.61;100.00;101370.50;4948565;28;20515;-74
2022/12/19 08:24:25;;;;;;;41.80;21.67;;;;;;;2.64;100.00;101373.22;4927022;28;20050;-74
2022/12/19 08:26:52;;;;;;;43.58;21.92;;;;;;;2.65;100.00;101366.31;4972219;28;20047;-74
2022/12/19 08:29:19;;;;;;;47.55;22.10;;;;;;;2.68;100.00;101359.50;4956176;28;20065;-74
2022/12/19 08:31:47;;;;;;;49.72;23.23;;;;;;;2.70;100.00;101359.59;4952564;28;20045;-74
2022/12/19 08:34:14;;;;;;;47.53;22.55;;;;;;;2.73;100.00;101363.22;4952398;28;20050;-74
2022/12/19 08:36:41;;;;;;;48.72;22.50;;;;;;;2.76;100.00;101353.75;4985622;28;20053;-74
2022/12/19 08:39:10;;;;;;;50.28;23.00;;;;;;;2.80;100.00;101355.66;4953781;28;20058;-74
2022/12/19 08:41:37;;;;;;;51.53;23.55;;;;;;;2.82;100.00;101356.63;4943829;28;23717;-74
2022/12/19 08:44:12;;;;;;;50.85;23.33;;;;;;;2.82;100.00;101356.63;4980735;28;20042;-75
2022/12/19 08:46:39;;;;;;;52.17;23.63;;;;;;;2.86;100.00;101361.16;4994713;28;20041;-75
2022/12/19 08:49:15;;;;;;;43.40;20.13;;;;;;;2.87;100.00;101348.22;4953626;28;20057;-75
2022/12/19 08:51:42;;;;;;;44.90;21.85;;;;;;;2.91;100.00;101355.31;4975837;28;20042;-76
2022/12/19 08:54:11;;;;;;;41.92;20.48;;;;;;;2.94;100.00;101349.34;4964019;28;20053;-75
2022/12/19 08:56:38;;;;;;;43.45;21.95;;;;;;;2.97;100.00;101348.56;4986104;28;20057;-75
2022/12/19 08:59:12;;;;;;;44.15;22.08;;;;;;;3.01;100.00;101355.72;4974857;28;20419;-75
2022/12/19 09:01:51;;;;;;;39.13;20.13;;;;;;;3.05;100.00;101355.88;4949488;28;20051;-75
2022/12/19 09:04:19;;;;;;;44.63;21.63;;;;;;;3.09;100.00;101349.97;4940655;28;20046;-75
2022/12/19 09:07:06;;;;;;;40.25;19.35;;;;;;;3.11;100.00;101347.44;4940340;28;20472;-75
2022/12/19 09:09:33;;;;;;;47.38;22.23;;;;;;;3.16;100.00;101358.03;4977685;28;20046;-75
2022/12/19 09:12:00;;;;;;;39.40;20.83;;;;;;;3.19;100.00;101356.44;4987696;28;20046;-75
2022/12/19 09:14:32;;;;;;;45.05;20.50;;;;;;;3.20;100.00;101360.84;4975836;28;20054;-75
2022/12/19 09:17:00;;;;;;;43.75;21.00;;;;;;;3.22;100.00;101361.78;4959254;28;20043;-75
2022/12/19 09:19:31;;;;;;;41.78;20.65;;;;;;;3.24;100.00;101354.94;4936688;28;20039;-75
2022/12/19 09:21:58;;;;;;;43.22;21.75;;;;;;;3.26;100.00;101362.81;4954974;28;20423;-75
2022/12/19 09:24:25;;;;;;;41.78;20.15;;;;;;;3.29;100.00;101370.75;4913432;28;20400;-75
2022/12/19 09:26:53;;;;;;;33.50;18.45;;;;;;;3.30;100.00;101368.19;4969363;28;20050;-75
2022/12/19 09:29:20;;;;;;;37.25;19.67;;;;;;;3.34;100.00;101357.91;4971154;28;20054;-75
2022/12/19 09:31:49;;;;;;;43.55;20.05;;;;;;;3.36;100.00;101371.88;4957278;28;20693;-76
2022/12/19 09:34:24;;;;;;;35.95;20.38;;;;;;;3.39;100.00;101364.22;4983019;28;20050;-75
2022/12/19 09:37:09;;;;;;;44.40;22.92;;;;;;;3.40;100.00;101369.47;4939086;28;20035;-75
2022/12/19 09:39:42;;;;;;;35.95;20.23;;;;;;;3.43;100.00;101371.31;4962545;28;20880;-75
2022/12/19 09:42:18;;;;;;;33.13;18.90;;;;;;;3.48;100.00;101375.88;4989704;28;20060;-75
2022/12/19 09:45:27;;;;;;;35.35;19.10;;;;;;;3.54;100.00;101371.75;4979111;28;20844;-75
2022/12/19 09:48:00;;;;;;;34.83;19.17;;;;;;;3.59;100.00;101368.50;4967769;28;20054;-76
2022/12/19 09:50:42;;;;;;;35.45;19.27;;;;;;;3.67;100.00;101358.38;4983756;28;20038;-75
2022/12/19 09:53:18;;;;;;;29.20;18.00;;;;;;;3.70;100.00;101359.41;4893197;28;20054;-76
2022/12/19 09:55:47;;;;;;;30.05;18.38;;;;;;;3.77;100.00;101357.91;4973944;28;20061;-76
2022/12/19 09:58:31;;;;;;;34.95;20.10;;;;;;;3.84;100.00;101354.72;4987668;28;20049;-75
2022/12/19 10:01:03;;;;;;;30.15;19.27;;;;;;;3.89;100.00;101355.78;4972818;28;20073;-76
2022/12/19 10:03:42;;;;;;;32.03;19.42;;;;;;;3.98;100.00;101360.44;4970961;28;20065;-76
2022/12/19 10:06:20;;;;;;;35.67;20.52;;;;;;;4.01;100.00;101357.97;4966878;28;20415;-75
2022/12/19 10:09:12;;;;;;;40.88;22.17;;;;;;;4.06;100.00;101356.44;4931432;28;20053;-75
2022/12/19 10:12:08;;;;;;;33.63;19.48;;;;;;;4.13;100.00;101360.13;4992899;28;20047;-76
2022/12/19 10:15:18;;;;;;;38.45;21.08;;;;;;;4.20;100.00;101369.09;4996777;28;20038;-76
2022/12/19 10:18:14;;;;;;;37.50;21.75;;;;;;;4.23;100.00;101362.25;4973185;28;20113;-76
2022/12/19 10:20:49;;;;;;;43.17;23.80;;;;;;;4.24;100.00;101371.88;4967319;28;20754;-75
2022/12/19 10:23:49;;;;;;;46.88;24.17;;;;;;;4.27;100.00;101371.09;4982027;28;20046;-76
2022/12/19 10:26:22;;;;;;;40.72;22.63;;;;;;;4.29;100.00;101359.88;4981169;28;20042;-76
2022/12/19 10:29:43;;;;;;;40.05;23.60;;;;;;;4.32;100.00;101363.44;4992962;28;20058;-76
2022/12/19 10:32:23;;;;;;;42.17;23.52;;;;;;;4.34;100.00;101357.44;4986456;28;20081;-76
2022/12/19 10:34:52;;;;;;;40.60;23.23;;;;;;;4.38;100.00;101358.44;4979942;28;20050;-76
2022/12/19 10:37:23;;;;;;;43.58;23.70;;;;;;;4.40;100.00;101357.66;4984614;28;20046;-75
2022/12/19 10:40:31;;;;;;;56.55;29.10;;;;;;;4.43;100.00;101357.78;4946157;28;20071;-75
2022/12/19 10:43:10;;;;;;;36.80;23.58;;;;;;;4.47;100.00;101346.63;4963425;28;20061;-76
2022/12/19 10:45:51;;;;;;;43.35;24.90;;;;;;;4.52;100.00;101354.63;4989573;28;20061;-76
2022/12/19 10:48:21;;;;;;;43.55;25.10;;;;;;;4.55;100.00;101354.72;4985615;28;20046;-75
2022/12/19 10:50:56;;;;;;;46.20;24.85;;;;;;;4.59;100.00;101340.94;4988477;28;20054;-76
2022/12/19 10:53:29;;;;;;;46.25;24.60;;;;;;;4.62;100.00;101345.41;4966247;28;20033;-75
2022/12/19 10:56:01;;;;;;;41.97;23.80;;;;;;;4.63;100.00;101348.06;4933224;28;20045;-76
2022/12/19 10:58:35;;;;;;;48.15;24.40;;;;;;;4.67;100.00;101349.94;4974892;28;20034;-76
2022/12/19 11:01:20;;;;;;;37.28;22.95;;;;;;;4.69;100.00;101353.50;4991647;28;20050;-76
2022/12/19 11:03:52;;;;;;;42.78;23.52;;;;;;;4.72;100.00;101350.09;4989199;28;20046;-76
2022/12/19 11:06:50;;;;;;;41.85;23.30;;;;;;;4.74;100.00;101344.94;4972139;28;20042;-76
2022/12/19 11:09:24;;;;;;;44.67;23.27;;;;;;;4.75;100.00;101344.09;4981634;28;20416;-76
2022/12/19 11:12:17;;;;;;;42.35;22.63;;;;;;;4.80;100.00;101345.13;4940487;28;27167;-76
2022/12/19 11:15:13;;;;;;;47.88;24.98;;;;;;;4.82;100.00;101346.06;4990338;28;20057;-76
2022/12/19 11:18:08;;;;;;;41.45;22.75;;;;;;;4.85;100.00;101336.63;4965374;28;20045;-76
2022/12/19 11:21:29;;;;;;;34.10;20.98;;;;;;;4.91;100.00;101322.88;4972848;28;20050;-76
2022/12/19 11:24:23;;;;;;;;;;;;;;;4.94;100.00;101328.22;4970148;28;20058;-75
2022/12/19 11:27:45;;;;;;;39.60;22.30;;;;;;;4.98;100.00;101326.59;4923619;28;19940;-75
2022/12/19 11:30:34;;;;;;;35.08;21.27;;;;;;;5.02;100.00;101329.34;4960892;28;20069;-75
2022/12/19 11:33:21;;;;;;;40.05;22.45;;;;;;;5.05;100.00;101321.63;4965483;28;20077;-75
2022/12/19 11:35:54;;;;;;;35.03;20.63;;;;;;;5.07;100.00;101334.75;4951495;28;20050;-75
2022/12/19 11:38:36;;;;;;;35.78;21.75;;;;;;;5.08;100.00;101332.19;4978118;28;20431;-75
2022/12/19 11:41:29;;;;;;;36.03;21.52;;;;;;;5.09;100.00;101338.31;4984591;28;20039;-76
2022/12/19 11:44:20;;;;;;;33.28;20.60;;;;;;;5.10;100.00;101334.84;4976762;28;20046;-74
2022/12/19 11:47:02;;;;;;;33.58;20.63;;;;;;;5.11;100.00;101330.53;4976919;28;20058;-75